Dubuque, Iowa
Current Conditions -  °F | °C
As of 12:53 AM on Monday 24 Nov 2014 (Local Time) from KDBQ Reporting Station
Haze Haze  
Wind Chill: 31°   Ceiling: 400
Heat Index: 40°   Visibility: 5mi
Dew Point: 40°   Wind: 18mph
Humidity: 100%   Direction: 310°NW
Pressure: 29.14"   Gusts: NA
Location:  42.5°N, 90.66°W
Report Text: KDBQ 240653Z AUTO 31016KT 5SM BR OVC004 04/04 A2914 RMK AO2 RAE36 SLP872 P0000 T00440044 $
Loading
Personal Weather Stations






























Interactive Weather Map New forecast layout! Learn more

10-Day Weather Forecast

Advertisements
Track Severe Weather on mobile